sensor_id;sensor_type;location;lat;lon;timestamp;pressure;altitude;pressure_sealevel;temperature;humidity
45253;BME280;30988;50.518;30.486;2022-08-21T00:00:27;99671.41;;;22.50;93.68
45253;BME280;30988;50.518;30.486;2022-08-21T00:00:59;99673.72;;;22.53;93.47
45253;BME280;30988;50.518;30.486;2022-08-21T00:01:36;99671.94;;;22.45;93.68
45253;BME280;30988;50.518;30.486;2022-08-21T00:02:14;99664.03;;;22.52;93.78
45253;BME280;30988;50.518;30.486;2022-08-21T00:02:46;99663.94;;;22.45;93.27
45253;BME280;30988;50.518;30.486;2022-08-21T00:03:18;99667.25;;;22.47;93.65
45253;BME280;30988;50.518;30.486;2022-08-21T00:03:51;99666.63;;;22.37;93.34
45253;BME280;30988;50.518;30.486;2022-08-21T00:04:22;99668.19;;;22.31;92.92
45253;BME280;30988;50.518;30.486;2022-08-21T00:04:55;99666.81;;;22.35;93.05
45253;BME280;30988;50.518;30.486;2022-08-21T00:05:30;99673.94;;;22.43;93.42
45253;BME280;30988;50.518;30.486;2022-08-21T00:06:02;99674.53;;;22.53;93.25
45253;BME280;30988;50.518;30.486;2022-08-21T00:06:35;99673.53;;;22.31;93.16
45253;BME280;30988;50.518;30.486;2022-08-21T00:07:08;99674.94;;;22.42;92.91
45253;BME280;30988;50.518;30.486;2022-08-21T00:07:42;99674.28;;;22.40;93.24
45253;BME280;30988;50.518;30.486;2022-08-21T00:08:28;99674.22;;;22.25;92.86
45253;BME280;30988;50.518;30.486;2022-08-21T00:09:02;99679.00;;;22.30;92.84
45253;BME280;30988;50.518;30.486;2022-08-21T00:09:34;99677.59;;;22.42;92.89
45253;BME280;30988;50.518;30.486;2022-08-21T00:10:06;99678.97;;;22.38;92.83
45253;BME280;30988;50.518;30.486;2022-08-21T00:10:40;99679.75;;;22.16;92.65
45253;BME280;30988;50.518;30.486;2022-08-21T00:11:12;99676.13;;;22.00;92.80
45253;BME280;30988;50.518;30.486;2022-08-21T00:11:43;99683.94;;;22.02;92.89
45253;BME280;30988;50.518;30.486;2022-08-21T00:12:19;99685.59;;;22.03;93.00
45253;BME280;30988;50.518;30.486;2022-08-21T00:12:50;99687.97;;;22.06;92.80
45253;BME280;30988;50.518;30.486;2022-08-21T00:13:24;99674.41;;;22.16;92.78
45253;BME280;30988;50.518;30.486;2022-08-21T00:13:57;99681.28;;;22.10;93.16
45253;BME280;30988;50.518;30.486;2022-08-21T00:14:29;99678.28;;;22.05;92.90
45253;BME280;30988;50.518;30.486;2022-08-21T00:15:00;99677.31;;;21.98;92.96
45253;BME280;30988;50.518;30.486;2022-08-21T00:15:34;99672.81;;;21.98;92.76
45253;BME280;30988;50.518;30.486;2022-08-21T00:16:08;99684.06;;;22.17;93.47
45253;BME280;30988;50.518;30.486;2022-08-21T00:16:40;99680.56;;;22.16;93.10
45253;BME280;30988;50.518;30.486;2022-08-21T00:17:11;99672.75;;;22.15;93.45
45253;BME280;30988;50.518;30.486;2022-08-21T00:17:43;99672.13;;;22.04;93.02
45253;BME280;30988;50.518;30.486;2022-08-21T00:18:18;99674.09;;;22.19;93.40
45253;BME280;30988;50.518;30.486;2022-08-21T00:18:50;99672.53;;;22.24;93.27
45253;BME280;30988;50.518;30.486;2022-08-21T00:19:22;99675.94;;;22.10;93.02
45253;BME280;30988;50.518;30.486;2022-08-21T00:19:55;99670.06;;;22.23;93.52
45253;BME280;30988;50.518;30.486;2022-08-21T00:20:29;99680.16;;;22.35;93.11
45253;BME280;30988;50.518;30.486;2022-08-21T00:21:02;99678.84;;;22.31;93.27
45253;BME280;30988;50.518;30.486;2022-08-21T00:21:34;99677.75;;;22.18;93.15
45253;BME280;30988;50.518;30.486;2022-08-21T00:22:06;99678.53;;;22.26;92.99
45253;BME280;30988;50.518;30.486;2022-08-21T00:22:39;99678.31;;;22.36;93.27
45253;BME280;30988;50.518;30.486;2022-08-21T00:23:12;99680.34;;;22.34;93.31
45253;BME280;30988;50.518;30.486;2022-08-21T00:23:44;99679.00;;;22.30;93.21
45253;BME280;30988;50.518;30.486;2022-08-21T00:24:16;99673.09;;;22.20;92.92
45253;BME280;30988;50.518;30.486;2022-08-21T00:24:48;99671.41;;;22.19;93.05
45253;BME280;30988;50.518;30.486;2022-08-21T00:25:20;99666.19;;;21.86;92.59
45253;BME280;30988;50.518;30.486;2022-08-21T00:25:53;99670.16;;;21.90;92.49
45253;BME280;30988;50.518;30.486;2022-08-21T00:26:30;99672.69;;;21.92;92.67
45253;BME280;30988;50.518;30.486;2022-08-21T00:27:04;99676.22;;;21.76;92.80
45253;BME280;30988;50.518;30.486;2022-08-21T00:27:36;99670.59;;;21.71;92.90
45253;BME280;30988;50.518;30.486;2022-08-21T00:28:07;99672.16;;;21.88;92.92
45253;BME280;30988;50.518;30.486;2022-08-21T00:28:39;99679.97;;;21.50;92.72
45253;BME280;30988;50.518;30.486;2022-08-21T00:29:11;99677.94;;;21.61;92.63
45253;BME280;30988;50.518;30.486;2022-08-21T00:29:44;99674.13;;;21.55;92.60
45253;BME280;30988;50.518;30.486;2022-08-21T00:30:16;99673.94;;;21.65;93.10
45253;BME280;30988;50.518;30.486;2022-08-21T00:30:48;99677.91;;;21.69;93.05
45253;BME280;30988;50.518;30.486;2022-08-21T00:31:22;99672.22;;;21.80;93.18
45253;BME280;30988;50.518;30.486;2022-08-21T00:31:53;99673.53;;;21.84;93.36
45253;BME280;30988;50.518;30.486;2022-08-21T00:32:31;99672.03;;;21.81;93.57
45253;BME280;30988;50.518;30.486;2022-08-21T00:33:03;99679.03;;;21.82;93.37
45253;BME280;30988;50.518;30.486;2022-08-21T00:33:35;99674.44;;;21.68;93.23
45253;BME280;30988;50.518;30.486;2022-08-21T00:34:06;99668.06;;;21.77;93.51
45253;BME280;30988;50.518;30.486;2022-08-21T00:34:39;99672.69;;;21.83;93.66
45253;BME280;30988;50.518;30.486;2022-08-21T00:35:14;99670.88;;;21.84;93.54
45253;BME280;30988;50.518;30.486;2022-08-21T00:35:48;99667.50;;;21.90;93.51
45253;BME280;30988;50.518;30.486;2022-08-21T00:36:20;99674.38;;;21.84;93.42
45253;BME280;30988;50.518;30.486;2022-08-21T00:36:52;99669.75;;;21.70;93.60
45253;BME280;30988;50.518;30.486;2022-08-21T00:37:23;99672.81;;;21.18;92.89
45253;BME280;30988;50.518;30.486;2022-08-21T00:37:56;99673.16;;;21.15;93.11
45253;BME280;30988;50.518;30.486;2022-08-21T00:38:30;99671.34;;;21.32;93.25
45253;BME280;30988;50.518;30.486;2022-08-21T00:39:02;99673.78;;;21.50;93.55
45253;BME280;30988;50.518;30.486;2022-08-21T00:39:35;99673.66;;;21.43;93.69
45253;BME280;30988;50.518;30.486;2022-08-21T00:40:10;99679.75;;;21.68;93.90
45253;BME280;30988;50.518;30.486;2022-08-21T00:40:45;99668.38;;;21.74;94.21
45253;BME280;30988;50.518;30.486;2022-08-21T00:41:18;99672.94;;;21.66;93.80
45253;BME280;30988;50.518;30.486;2022-08-21T00:41:49;99662.28;;;21.66;94.03
45253;BME280;30988;50.518;30.486;2022-08-21T00:42:21;99666.56;;;21.75;94.06
45253;BME280;30988;50.518;30.486;2022-08-21T00:42:53;99665.34;;;21.86;94.21
45253;BME280;30988;50.518;30.486;2022-08-21T00:43:28;99669.38;;;21.81;93.88
45253;BME280;30988;50.518;30.486;2022-08-21T00:44:13;99674.19;;;21.86;94.00
45253;BME280;30988;50.518;30.486;2022-08-21T00:44:48;99671.56;;;21.78;93.96
45253;BME280;30988;50.518;30.486;2022-08-21T00:45:21;99674.72;;;21.73;93.71
45253;BME280;30988;50.518;30.486;2022-08-21T00:45:58;99668.03;;;21.86;94.15
45253;BME280;30988;50.518;30.486;2022-08-21T00:46:32;99671.84;;;21.91;94.37
45253;BME280;30988;50.518;30.486;2022-08-21T00:47:04;99670.22;;;21.82;93.70
45253;BME280;30988;50.518;30.486;2022-08-21T00:47:35;99677.03;;;21.84;94.22
45253;BME280;30988;50.518;30.486;2022-08-21T00:48:09;99673.41;;;21.77;93.85
45253;BME280;30988;50.518;30.486;2022-08-21T00:48:40;99672.72;;;21.75;93.77
45253;BME280;30988;50.518;30.486;2022-08-21T00:49:13;99674.25;;;21.62;93.55
45253;BME280;30988;50.518;30.486;2022-08-21T00:49:45;99672.09;;;21.65;93.73
45253;BME280;30988;50.518;30.486;2022-08-21T00:50:17;99683.44;;;21.67;93.80
45253;BME280;30988;50.518;30.486;2022-08-21T00:50:56;99674.97;;;21.47;93.84
45253;BME280;30988;50.518;30.486;2022-08-21T00:51:36;99674.84;;;21.24;93.78
45253;BME280;30988;50.518;30.486;2022-08-21T00:52:12;99671.81;;;21.52;94.13
45253;BME280;30988;50.518;30.486;2022-08-21T00:52:46;99682.09;;;21.63;94.30
45253;BME280;30988;50.518;30.486;2022-08-21T00:53:19;99675.91;;;21.63;94.29
45253;BME280;30988;50.518;30.486;2022-08-21T00:53:56;99680.13;;;21.49;93.64
45253;BME280;30988;50.518;30.486;2022-08-21T00:54:31;99684.63;;;21.57;94.39
45253;BME280;30988;50.518;30.486;2022-08-21T00:55:05;99673.72;;;21.74;94.41
45253;BME280;30988;50.518;30.486;2022-08-21T00:55:38;99672.34;;;21.87;94.62
45253;BME280;30988;50.518;30.486;2022-08-21T00:56:11;99674.81;;;21.96;94.67
45253;BME280;30988;50.518;30.486;2022-08-21T00:56:50;99671.13;;;21.58;93.65
45253;BME280;30988;50.518;30.486;2022-08-21T00:57:26;99670.63;;;21.46;93.82
45253;BME280;30988;50.518;30.486;2022-08-21T00:57:59;99672.09;;;21.65;94.37
45253;BME280;30988;50.518;30.486;2022-08-21T00:58:32;99669.56;;;21.80;94.45
45253;BME280;30988;50.518;30.486;2022-08-21T00:59:06;99673.34;;;21.86;94.52
45253;BME280;30988;50.518;30.486;2022-08-21T00:59:44;99671.56;;;21.78;94.38
45253;BME280;30988;50.518;30.486;2022-08-21T01:00:24;99679.53;;;21.86;94.38
45253;BME280;30988;50.518;30.486;2022-08-21T01:00:56;99672.34;;;21.87;94.11
45253;BME280;30988;50.518;30.486;2022-08-21T01:01:34;99679.75;;;21.68;94.29
45253;BME280;30988;50.518;30.486;2022-08-21T01:02:07;99672.41;;;21.70;94.16
45253;BME280;30988;50.518;30.486;2022-08-21T01:02:43;99676.94;;;21.62;94.01
45253;BME280;30988;50.518;30.486;2022-08-21T01:03:19;99673.22;;;21.79;93.87
45253;BME280;30988;50.518;30.486;2022-08-21T01:03:51;99671.03;;;21.91;94.25
45253;BME280;30988;50.518;30.486;2022-08-21T01:04:22;99683.66;;;21.89;94.13
45253;BME280;30988;50.518;30.486;2022-08-21T01:04:55;99678.56;;;21.79;93.75
45253;BME280;30988;50.518;30.486;2022-08-21T01:05:30;99682.00;;;21.88;93.74
45253;BME280;30988;50.518;30.486;2022-08-21T01:06:03;99680.88;;;21.82;93.83
45253;BME280;30988;50.518;30.486;2022-08-21T01:06:36;99681.34;;;21.94;94.03
45253;BME280;30988;50.518;30.486;2022-08-21T01:07:08;99687.44;;;22.02;94.13
45253;BME280;30988;50.518;30.486;2022-08-21T01:07:40;99679.16;;;21.97;93.98
45253;BME280;30988;50.518;30.486;2022-08-21T01:08:13;99677.59;;;22.03;93.95
45253;BME280;30988;50.518;30.486;2022-08-21T01:08:46;99686.50;;;21.95;93.69
45253;BME280;30988;50.518;30.486;2022-08-21T01:09:19;99684.38;;;21.82;93.83
45253;BME280;30988;50.518;30.486;2022-08-21T01:09:51;99674.19;;;21.86;93.84
45253;BME280;30988;50.518;30.486;2022-08-21T01:10:23;99682.78;;;21.65;93.72
45253;BME280;30988;50.518;30.486;2022-08-21T01:10:56;99683.91;;;21.79;93.86
45253;BME280;30988;50.518;30.486;2022-08-21T01:11:31;99682.72;;;21.73;93.15
45253;BME280;30988;50.518;30.486;2022-08-21T01:12:04;99679.56;;;21.78;93.42
45253;BME280;30988;50.518;30.486;2022-08-21T01:12:36;99670.22;;;21.82;93.67
45253;BME280;30988;50.518;30.486;2022-08-21T01:13:11;99687.97;;;21.98;93.75
45253;BME280;30988;50.518;30.486;2022-08-21T01:13:45;99685.16;;;22.07;93.69
45253;BME280;30988;50.518;30.486;2022-08-21T01:14:18;99682.59;;;22.14;93.53
45253;BME280;30988;50.518;30.486;2022-08-21T01:14:50;99676.59;;;22.12;93.75
45253;BME280;30988;50.518;30.486;2022-08-21T01:15:26;99682.53;;;21.91;93.25
45253;BME280;30988;50.518;30.486;2022-08-21T01:16:00;99680.00;;;22.06;93.31
45253;BME280;30988;50.518;30.486;2022-08-21T01:16:34;99677.44;;;22.12;93.51
45253;BME280;30988;50.518;30.486;2022-08-21T01:17:21;99666.13;;;22.10;93.30
45253;BME280;30988;50.518;30.486;2022-08-21T01:17:54;99676.50;;;22.05;93.12
45253;BME280;30988;50.518;30.486;2022-08-21T01:18:28;99674.28;;;22.09;93.07
45253;BME280;30988;50.518;30.486;2022-08-21T01:19:00;99671.09;;;22.13;93.02
45253;BME280;30988;50.518;30.486;2022-08-21T01:19:32;99670.75;;;22.17;93.01
45253;BME280;30988;50.518;30.486;2022-08-21T01:20:05;99667.09;;;22.18;93.35
45253;BME280;30988;50.518;30.486;2022-08-21T01:20:40;99674.47;;;22.07;92.75
45253;BME280;30988;50.518;30.486;2022-08-21T01:21:21;99672.34;;;21.95;92.52
45253;BME280;30988;50.518;30.486;2022-08-21T01:21:54;99666.28;;;22.01;92.77
45253;BME280;30988;50.518;30.486;2022-08-21T01:22:25;99662.78;;;22.08;92.67
45253;BME280;30988;50.518;30.486;2022-08-21T01:22:57;99668.78;;;22.02;92.66
45253;BME280;30988;50.518;30.486;2022-08-21T01:23:29;99664.47;;;22.09;92.72
45253;BME280;30988;50.518;30.486;2022-08-21T01:24:01;99669.47;;;22.04;92.51
45253;BME280;30988;50.518;30.486;2022-08-21T01:24:33;99665.94;;;22.12;92.89
45253;BME280;30988;50.518;30.486;2022-08-21T01:25:06;99667.00;;;21.95;92.13
45253;BME280;30988;50.518;30.486;2022-08-21T01:25:41;99658.53;;;21.83;92.50
45253;BME280;30988;50.518;30.486;2022-08-21T01:26:14;99670.31;;;21.97;92.63
45253;BME280;30988;50.518;30.486;2022-08-21T01:26:48;99671.69;;;21.84;92.53
45253;BME280;30988;50.518;30.486;2022-08-21T01:27:19;99669.50;;;21.96;92.60
45253;BME280;30988;50.518;30.486;2022-08-21T01:27:52;99673.81;;;21.97;92.37
45253;BME280;30988;50.518;30.486;2022-08-21T01:28:24;99670.97;;;22.07;92.91
45253;BME280;30988;50.518;30.486;2022-08-21T01:28:58;99669.47;;;22.04;92.82
45253;BME280;30988;50.518;30.486;2022-08-21T01:29:38;99670.44;;;22.11;92.62
45253;BME280;30988;50.518;30.486;2022-08-21T01:30:12;99677.31;;;22.06;92.33
45253;BME280;30988;50.518;30.486;2022-08-21T01:30:45;99675.84;;;21.87;91.99
45253;BME280;30988;50.518;30.486;2022-08-21T01:31:20;99675.13;;;22.01;92.69
45253;BME280;30988;50.518;30.486;2022-08-21T01:31:53;99674.47;;;21.99;92.66
45253;BME280;30988;50.518;30.486;2022-08-21T01:32:25;99672.47;;;22.09;92.70
45253;BME280;30988;50.518;30.486;2022-08-21T01:32:59;99677.97;;;22.08;92.25
45253;BME280;30988;50.518;30.486;2022-08-21T01:33:31;99676.09;;;21.61;91.99
45253;BME280;30988;50.518;30.486;2022-08-21T01:34:03;99672.41;;;21.78;92.47
45253;BME280;30988;50.518;30.486;2022-08-21T01:34:40;99682.34;;;21.84;92.20
45253;BME280;30988;50.518;30.486;2022-08-21T01:35:15;99676.50;;;21.42;91.42
45253;BME280;30988;50.518;30.486;2022-08-21T01:35:46;99674.69;;;21.26;92.15
45253;BME280;30988;50.518;30.486;2022-08-21T01:36:20;99674.31;;;21.21;91.77
45253;BME280;30988;50.518;30.486;2022-08-21T01:36:53;99680.47;;;21.46;92.76
45253;BME280;30988;50.518;30.486;2022-08-21T01:37:24;99671.94;;;21.59;92.82
45253;BME280;30988;50.518;30.486;2022-08-21T01:37:56;99678.66;;;21.38;92.65
45253;BME280;30988;50.518;30.486;2022-08-21T01:38:28;99674.31;;;21.45;92.78
45253;BME280;30988;50.518;30.486;2022-08-21T01:39:00;99662.59;;;21.63;92.92
45253;BME280;30988;50.518;30.486;2022-08-21T01:39:34;99673.13;;;21.56;92.91
45253;BME280;30988;50.518;30.486;2022-08-21T01:40:08;99670.97;;;21.51;92.53
45253;BME280;30988;50.518;30.486;2022-08-21T01:40:39;99670.94;;;21.60;93.11
45253;BME280;30988;50.518;30.486;2022-08-21T01:41:12;99662.28;;;21.66;93.32
45253;BME280;30988;50.518;30.486;2022-08-21T01:41:43;99671.75;;;21.68;93.09
45253;BME280;30988;50.518;30.486;2022-08-21T01:42:15;99666.63;;;21.59;92.91
45253;BME280;30988;50.518;30.486;2022-08-21T01:42:48;99671.34;;;21.24;92.53
45253;BME280;30988;50.518;30.486;2022-08-21T01:43:19;99669.84;;;21.30;92.70
45253;BME280;30988;50.518;30.486;2022-08-21T01:43:52;99673.66;;;21.35;92.61
45253;BME280;30988;50.518;30.486;2022-08-21T01:44:25;99679.84;;;21.11;92.78
45253;BME280;30988;50.518;30.486;2022-08-21T01:44:56;99674.31;;;21.21;93.43
45253;BME280;30988;50.518;30.486;2022-08-21T01:45:28;99673.00;;;21.41;93.69
45253;BME280;30988;50.518;30.486;2022-08-21T01:46:02;99671.94;;;21.59;93.52
45253;BME280;30988;50.518;30.486;2022-08-21T01:46:35;99670.75;;;21.61;93.73
45253;BME280;30988;50.518;30.486;2022-08-21T01:47:10;99671.75;;;21.68;93.50
45253;BME280;30988;50.518;30.486;2022-08-21T01:47:43;99673.66;;;21.51;93.19
45253;BME280;30988;50.518;30.486;2022-08-21T01:48:14;99681.81;;;21.01;92.78
45253;BME280;30988;50.518;30.486;2022-08-21T01:48:48;99676.16;;;20.63;92.74
45253;BME280;30988;50.518;30.486;2022-08-21T01:49:21;99674.31;;;20.64;93.21
45253;BME280;30988;50.518;30.486;2022-08-21T01:49:52;99670.00;;;20.79;93.15
45253;BME280;30988;50.518;30.486;2022-08-21T01:50:24;99663.19;;;20.85;93.59
45253;BME280;30988;50.518;30.486;2022-08-21T01:50:56;99674.00;;;20.91;94.07
45253;BME280;30988;50.518;30.486;2022-08-21T01:51:29;99672.53;;;20.97;93.88
45253;BME280;30988;50.518;30.486;2022-08-21T01:52:00;99671.69;;;21.13;94.35
45253;BME280;30988;50.518;30.486;2022-08-21T01:52:34;99670.19;;;21.02;94.33
45253;BME280;30988;50.518;30.486;2022-08-21T01:53:05;99670.00;;;20.79;93.68
45253;BME280;30988;50.518;30.486;2022-08-21T01:53:38;99672.81;;;20.53;93.64
45253;BME280;30988;50.518;30.486;2022-08-21T01:54:10;99680.00;;;20.77;94.58
45253;BME280;30988;50.518;30.486;2022-08-21T01:54:42;99680.31;;;20.82;94.35
45253;BME280;30988;50.518;30.486;2022-08-21T01:55:14;99675.00;;;20.82;94.31
45253;BME280;30988;50.518;30.486;2022-08-21T01:55:48;99674.66;;;20.77;94.57
45253;BME280;30988;50.518;30.486;2022-08-21T01:56:19;99677.50;;;20.76;94.32
45253;BME280;30988;50.518;30.486;2022-08-21T01:56:52;99680.97;;;20.60;94.27
45253;BME280;30988;50.518;30.486;2022-08-21T01:57:24;99679.13;;;20.69;94.53
45253;BME280;30988;50.518;30.486;2022-08-21T01:57:59;99672.81;;;20.45;94.29
45253;BME280;30988;50.518;30.486;2022-08-21T01:58:31;99680.88;;;20.35;94.54
45253;BME280;30988;50.518;30.486;2022-08-21T01:59:04;99673.97;;;20.51;95.31
45253;BME280;30988;50.518;30.486;2022-08-21T01:59:35;99678.63;;;20.65;95.31
45253;BME280;30988;50.518;30.486;2022-08-21T02:00:11;99669.19;;;20.87;95.27
45253;BME280;30988;50.518;30.486;2022-08-21T02:00:44;99666.66;;;21.10;95.59
45253;BME280;30988;50.518;30.486;2022-08-21T02:01:15;99669.19;;;21.28;95.96
45253;BME280;30988;50.518;30.486;2022-08-21T02:01:46;99672.50;;;21.30;96.06
45253;BME280;30988;50.518;30.486;2022-08-21T02:02:20;99669.34;;;21.02;95.59
45253;BME280;30988;50.518;30.486;2022-08-21T02:02:51;99666.16;;;21.22;95.98
45253;BME280;30988;50.518;30.486;2022-08-21T02:03:23;99670.66;;;21.22;95.49
45253;BME280;30988;50.518;30.486;2022-08-21T02:03:55;99669.00;;;21.37;95.78
45253;BME280;30988;50.518;30.486;2022-08-21T02:04:26;99672.81;;;21.18;95.76
45253;BME280;30988;50.518;30.486;2022-08-21T02:04:58;99661.38;;;21.26;95.86
45253;BME280;30988;50.518;30.486;2022-08-21T02:05:30;99656.00;;;21.34;95.61
45253;BME280;30988;50.518;30.486;2022-08-21T02:06:02;99661.66;;;21.47;95.71
45253;BME280;30988;50.518;30.486;2022-08-21T02:06:35;99667.69;;;21.25;95.63
45253;BME280;30988;50.518;30.486;2022-08-21T02:07:08;99666.19;;;21.39;95.93
45253;BME280;30988;50.518;30.486;2022-08-21T02:07:40;99660.97;;;21.53;95.79
45253;BME280;30988;50.518;30.486;2022-08-21T02:08:12;99663.34;;;21.32;95.58
45253;BME280;30988;50.518;30.486;2022-08-21T02:08:45;99663.00;;;21.19;95.01
45253;BME280;30988;50.518;30.486;2022-08-21T02:09:17;99662.84;;;21.29;95.38
45253;BME280;30988;50.518;30.486;2022-08-21T02:09:50;99662.38;;;21.25;95.39
45253;BME280;30988;50.518;30.486;2022-08-21T02:10:23;99659.84;;;21.23;95.65
45253;BME280;30988;50.518;30.486;2022-08-21T02:10:55;99658.31;;;21.45;95.31
45253;BME280;30988;50.518;30.486;2022-08-21T02:11:27;99658.97;;;21.47;95.63
45253;BME280;30988;50.518;30.486;2022-08-21T02:11:58;99656.84;;;21.43;95.03
45253;BME280;30988;50.518;30.486;2022-08-21T02:12:30;99649.97;;;21.57;95.53
45253;BME280;30988;50.518;30.486;2022-08-21T02:13:02;99648.94;;;21.66;95.34
45253;BME280;30988;50.518;30.486;2022-08-21T02:13:34;99648.72;;;21.75;95.49
45253;BME280;30988;50.518;30.486;2022-08-21T02:14:05;99653.56;;;21.72;95.25
45253;BME280;30988;50.518;30.486;2022-08-21T02:14:37;99658.38;;;21.76;95.36
45253;BME280;30988;50.518;30.486;2022-08-21T02:15:09;99656.41;;;21.70;95.22
45253;BME280;30988;50.518;30.486;2022-08-21T02:15:40;99661.72;;;21.78;95.34
45253;BME280;30988;50.518;30.486;2022-08-21T02:16:13;99653.22;;;21.83;94.87
45253;BME280;30988;50.518;30.486;2022-08-21T02:16:45;99653.22;;;21.83;94.82
45253;BME280;30988;50.518;30.486;2022-08-21T02:17:16;99663.81;;;21.44;94.37
45253;BME280;30988;50.518;30.486;2022-08-21T02:17:50;99653.50;;;21.41;94.43
45253;BME280;30988;50.518;30.486;2022-08-21T02:18:22;99656.81;;;21.51;94.68
45253;BME280;30988;50.518;30.486;2022-08-21T02:18:54;99657.13;;;21.64;94.80
45253;BME280;30988;50.518;30.486;2022-08-21T02:19:26;99651.56;;;21.74;94.78
45253;BME280;30988;50.518;30.486;2022-08-21T02:19:57;99658.59;;;21.67;94.69
45253;BME280;30988;50.518;30.486;2022-08-21T02:20:32;99651.09;;;21.70;94.25
45253;BME280;30988;50.518;30.486;2022-08-21T02:21:05;99655.13;;;21.66;94.39
45253;BME280;30988;50.518;30.486;2022-08-21T02:21:38;99652.56;;;21.73;94.31
45253;BME280;30988;50.518;30.486;2022-08-21T02:22:10;99652.06;;;21.77;94.54
45253;BME280;30988;50.518;30.486;2022-08-21T02:22:42;99658.19;;;21.86;94.21
45253;BME280;30988;50.518;30.486;2022-08-21T02:23:14;99651.66;;;21.89;94.04
45253;BME280;30988;50.518;30.486;2022-08-21T02:23:47;99655.16;;;21.97;94.20
45253;BME280;30988;50.518;30.486;2022-08-21T02:24:18;99649.28;;;22.02;94.16
45253;BME280;30988;50.518;30.486;2022-08-21T02:24:49;99651.63;;;22.05;93.87
45253;BME280;30988;50.518;30.486;2022-08-21T02:25:23;99654.22;;;21.82;93.57
45253;BME280;30988;50.518;30.486;2022-08-21T02:25:56;99653.44;;;21.65;93.63
45253;BME280;30988;50.518;30.486;2022-08-21T02:26:28;99656.41;;;21.78;93.80
45253;BME280;30988;50.518;30.486;2022-08-21T02:27:01;99653.94;;;21.61;93.58
45253;BME280;30988;50.518;30.486;2022-08-21T02:27:37;99655.59;;;21.62;93.27
45253;BME280;30988;50.518;30.486;2022-08-21T02:28:11;99653.50;;;21.41;93.54
45253;BME280;30988;50.518;30.486;2022-08-21T02:28:44;99647.97;;;21.59;93.63
45253;BME280;30988;50.518;30.486;2022-08-21T02:29:15;99652.44;;;21.66;93.57
45253;BME280;30988;50.518;30.486;2022-08-21T02:29:46;99649.25;;;21.71;93.45
45253;BME280;30988;50.518;30.486;2022-08-21T02:30:21;99646.94;;;21.68;93.44
45253;BME280;30988;50.518;30.486;2022-08-21T02:30:53;99642.63;;;21.59;93.68
45253;BME280;30988;50.518;30.486;2022-08-21T02:31:26;99647.50;;;21.47;92.88
45253;BME280;30988;50.518;30.486;2022-08-21T02:31:58;99645.81;;;21.54;93.39
45253;BME280;30988;50.518;30.486;2022-08-21T02:32:31;99641.50;;;21.37;93.37
45253;BME280;30988;50.518;30.486;2022-08-21T02:33:04;99643.50;;;21.51;93.28
45253;BME280;30988;50.518;30.486;2022-08-21T02:33:35;99655.84;;;21.44;93.10
45253;BME280;30988;50.518;30.486;2022-08-21T02:34:06;99653.00;;;21.21;93.17
45253;BME280;30988;50.518;30.486;2022-08-21T02:34:39;99651.56;;;20.86;92.75
45253;BME280;30988;50.518;30.486;2022-08-21T02:35:11;99650.88;;;20.92;93.35
45253;BME280;30988;50.518;30.486;2022-08-21T02:35:45;99654.03;;;21.04;93.29
45253;BME280;30988;50.518;30.486;2022-08-21T02:36:16;99649.06;;;21.25;93.75
45253;BME280;30988;50.518;30.486;2022-08-21T02:36:50;99654.22;;;21.27;93.75
45253;BME280;30988;50.518;30.486;2022-08-21T02:37:22;99654.88;;;21.29;93.92
45253;BME280;30988;50.518;30.486;2022-08-21T02:37:55;99647.69;;;21.37;93.67
45253;BME280;30988;50.518;30.486;2022-08-21T02:38:30;99658.31;;;21.53;93.99
45253;BME280;30988;50.518;30.486;2022-08-21T02:39:02;99650.97;;;21.56;93.89
45253;BME280;30988;50.518;30.486;2022-08-21T02:39:33;99659.94;;;21.63;94.35
45253;BME280;30988;50.518;30.486;2022-08-21T02:40:06;99658.97;;;21.64;93.75
45253;BME280;30988;50.518;30.486;2022-08-21T02:40:42;99653.09;;;21.68;93.67
45253;BME280;30988;50.518;30.486;2022-08-21T02:41:15;99653.34;;;21.42;93.70
45253;BME280;30988;50.518;30.486;2022-08-21T02:41:47;99652.16;;;21.53;93.83
45253;BME280;30988;50.518;30.486;2022-08-21T02:42:19;99648.97;;;21.58;93.73
45253;BME280;30988;50.518;30.486;2022-08-21T02:42:50;99652.94;;;21.70;93.67
45253;BME280;30988;50.518;30.486;2022-08-21T02:43:24;99650.91;;;21.80;93.75
45253;BME280;30988;50.518;30.486;2022-08-21T02:43:56;99649.91;;;21.73;93.64
45253;BME280;30988;50.518;30.486;2022-08-21T02:44:29;99648.44;;;21.62;93.43
45253;BME280;30988;50.518;30.486;2022-08-21T02:45:00;99647.25;;;21.73;93.55
45253;BME280;30988;50.518;30.486;2022-08-21T02:45:31;99647.41;;;21.71;93.77
45253;BME280;30988;50.518;30.486;2022-08-21T02:46:05;99649.78;;;21.66;93.78
45253;BME280;30988;50.518;30.486;2022-08-21T02:46:36;99651.91;;;21.71;93.78
45253;BME280;30988;50.518;30.486;2022-08-21T02:47:08;99652.75;;;21.63;93.23
45253;BME280;30988;50.518;30.486;2022-08-21T02:47:40;99653.66;;;21.47;93.28
45253;BME280;30988;50.518;30.486;2022-08-21T02:48:19;99651.69;;;21.17;92.78
45253;BME280;30988;50.518;30.486;2022-08-21T02:48:50;99649.72;;;21.11;93.29
45253;BME280;30988;50.518;30.486;2022-08-21T02:49:23;99646.22;;;21.27;93.22
45253;BME280;30988;50.518;30.486;2022-08-21T02:49:54;99643.56;;;21.27;92.93
45253;BME280;30988;50.518;30.486;2022-08-21T02:50:29;99648.72;;;21.28;93.51
45253;BME280;30988;50.518;30.486;2022-08-21T02:51:03;99651.03;;;21.15;93.13
45253;BME280;30988;50.518;30.486;2022-08-21T02:51:35;99647.56;;;20.98;92.75
45253;BME280;30988;50.518;30.486;2022-08-21T02:52:08;99649.19;;;21.15;93.25
45253;BME280;30988;50.518;30.486;2022-08-21T02:52:40;99653.38;;;21.26;93.79
45253;BME280;30988;50.518;30.486;2022-08-21T02:53:13;99656.84;;;21.43;93.94